createdAt,value
2019-04-03T00:00:41.044Z,16.83
2019-04-03T00:01:45.502Z,16.82
2019-04-03T00:02:49.728Z,16.82
2019-04-03T00:03:53.840Z,16.81
2019-04-03T00:04:58.007Z,16.82
2019-04-03T00:06:02.239Z,16.81
2019-04-03T00:07:06.433Z,16.81
2019-04-03T00:08:10.592Z,16.81
2019-04-03T00:09:14.779Z,16.80
2019-04-03T00:10:18.947Z,16.79
2019-04-03T00:11:24.751Z,16.75
2019-04-03T00:12:28.954Z,16.72
2019-04-03T00:13:33.116Z,16.69
2019-04-03T00:14:37.544Z,16.66
2019-04-03T00:15:42.792Z,16.63
2019-04-03T00:16:47.570Z,16.61
2019-04-03T00:17:51.825Z,16.62
2019-04-03T00:18:55.991Z,16.63
2019-04-03T00:20:00.180Z,16.63
2019-04-03T00:21:04.345Z,16.64
2019-04-03T00:22:08.651Z,16.59
2019-04-03T00:23:12.899Z,16.58
2019-04-03T00:24:17.055Z,16.54
2019-04-03T00:25:22.320Z,16.52
2019-04-03T00:26:30.244Z,16.40
2019-04-03T00:27:33.461Z,16.16
2019-04-03T00:28:37.733Z,15.96
2019-04-03T00:29:41.895Z,15.79
2019-04-03T00:30:46.401Z,15.81
2019-04-03T00:31:53.053Z,15.86
2019-04-03T00:32:56.555Z,15.93
2019-04-03T00:34:00.883Z,16.02
2019-04-03T00:35:09.074Z,16.02
2019-04-03T00:36:13.328Z,16.08
2019-04-03T00:37:17.563Z,16.03
2019-04-03T00:38:23.981Z,16.01
2019-04-03T00:39:27.774Z,16.02
2019-04-03T00:40:32.212Z,16.04
2019-04-03T00:41:36.434Z,15.90
2019-04-03T00:42:40.548Z,15.77
2019-04-03T00:43:44.857Z,15.75
2019-04-03T00:44:49.004Z,15.82
2019-04-03T00:45:54.536Z,15.82
2019-04-03T00:46:59.085Z,15.79
2019-04-03T00:48:03.208Z,15.77
2019-04-03T00:49:07.441Z,15.56
2019-04-03T00:50:11.610Z,15.46
2019-04-03T00:51:15.777Z,15.38
2019-04-03T00:52:20.049Z,15.34
2019-04-03T00:53:24.352Z,15.41
2019-04-03T00:54:30.880Z,15.49
2019-04-03T00:55:34.511Z,15.55
2019-04-03T00:56:38.680Z,15.59
2019-04-03T00:57:42.847Z,15.65
2019-04-03T00:58:47.012Z,15.63
2019-04-03T00:59:51.273Z,15.68
2019-04-03T01:00:56.333Z,15.69
2019-04-03T01:02:01.054Z,15.71
2019-04-03T01:03:06.031Z,15.72
2019-04-03T01:04:10.227Z,15.76
2019-04-03T01:05:14.462Z,15.81
2019-04-03T01:06:18.625Z,15.85
2019-04-03T01:07:22.860Z,15.89
2019-04-03T01:08:29.061Z,15.92
2019-04-03T01:09:32.931Z,15.90
2019-04-03T01:10:37.171Z,15.87
2019-04-03T01:11:41.335Z,15.89
2019-04-03T01:12:45.506Z,15.80
2019-04-03T01:13:50.097Z,15.84
2019-04-03T01:14:54.294Z,15.88
2019-04-03T01:15:58.460Z,15.79
2019-04-03T01:17:04.414Z,15.69
2019-04-03T01:18:08.918Z,15.69
2019-04-03T01:19:13.083Z,15.69
2019-04-03T01:20:17.252Z,15.72
2019-04-03T01:21:21.420Z,15.76
2019-04-03T01:22:26.085Z,15.79
2019-04-03T01:23:30.417Z,15.83
2019-04-03T01:24:34.681Z,15.79
2019-04-03T01:25:39.692Z,15.81
2019-04-03T01:26:44.405Z,15.73
2019-04-03T01:27:48.613Z,15.59
2019-04-03T01:28:52.851Z,15.44
2019-04-03T01:29:57.100Z,15.35
2019-04-03T01:31:01.260Z,15.35
2019-04-03T01:32:05.834Z,15.26
2019-04-03T01:33:10.072Z,15.28
2019-04-03T01:34:15.646Z,15.11
2019-04-03T01:35:20.205Z,15.12
2019-04-03T01:36:24.435Z,15.05
2019-04-03T01:37:28.656Z,14.99
2019-04-03T01:38:32.947Z,14.97
2019-04-03T01:39:37.187Z,14.88
2019-04-03T01:40:41.351Z,14.90
2019-04-03T01:41:45.812Z,14.81
2019-04-03T01:42:52.252Z,14.80
2019-04-03T01:43:55.952Z,14.77
2019-04-03T01:45:00.115Z,14.72
2019-04-03T01:46:04.978Z,14.78
2019-04-03T01:47:09.232Z,14.81
2019-04-03T01:48:15.921Z,14.86
2019-04-03T01:49:20.147Z,14.88
2019-04-03T01:50:24.540Z,14.94
2019-04-03T01:51:29.705Z,14.98
2019-04-03T01:52:35.688Z,15.04
2019-04-03T01:53:39.854Z,14.98
2019-04-03T01:54:45.813Z,14.91
2019-04-03T01:55:50.096Z,14.89
2019-04-03T01:56:54.623Z,14.92
2019-04-03T01:57:58.889Z,14.90
2019-04-03T01:59:06.096Z,14.79
2019-04-03T02:00:09.556Z,14.69
2019-04-03T02:01:13.797Z,14.65
2019-04-03T02:02:17.961Z,14.56
2019-04-03T02:03:22.265Z,14.54
2019-04-03T02:04:26.497Z,14.47
2019-04-03T02:05:30.671Z,14.44
2019-04-03T02:06:34.913Z,14.42
2019-04-03T02:07:39.078Z,14.32
2019-04-03T02:08:44.861Z,14.25
2019-04-03T02:09:49.774Z,14.33
2019-04-03T02:10:54.048Z,14.33
2019-04-03T02:11:58.467Z,14.31
2019-04-03T02:13:02.652Z,14.26
2019-04-03T02:14:07.017Z,14.19
2019-04-03T02:15:11.190Z,14.27
2019-04-03T02:16:15.950Z,14.20
2019-04-03T02:17:20.157Z,14.31
2019-04-03T02:18:25.468Z,14.40
2019-04-03T02:19:31.091Z,14.49
2019-04-03T02:20:35.417Z,14.50
2019-04-03T02:21:39.645Z,14.57
2019-04-03T02:22:43.876Z,14.65
2019-04-03T02:23:48.043Z,14.67
2019-04-03T02:24:52.683Z,14.74
2019-04-03T02:25:56.852Z,14.80
2019-04-03T02:27:03.166Z,14.87
2019-04-03T02:28:07.026Z,14.87
2019-04-03T02:29:11.455Z,14.96
2019-04-03T02:30:15.682Z,15.01
2019-04-03T02:31:20.497Z,15.08
2019-04-03T02:32:24.937Z,15.03
2019-04-03T02:33:29.607Z,15.15
2019-04-03T02:34:35.631Z,15.17
2019-04-03T02:35:40.591Z,15.14
2019-04-03T02:36:45.651Z,15.11
2019-04-03T02:37:50.744Z,15.19
2019-04-03T02:38:55.050Z,15.15
2019-04-03T02:40:00.469Z,15.05
2019-04-03T02:41:05.499Z,14.98
2019-04-03T02:42:10.534Z,14.94
2019-04-03T02:43:15.534Z,14.89
2019-04-03T02:44:20.151Z,14.83
2019-04-03T02:45:25.033Z,14.79
2019-04-03T02:46:29.830Z,14.72
2019-04-03T02:47:34.696Z,14.76
2019-04-03T02:48:39.101Z,14.79
2019-04-03T02:49:43.900Z,14.81
2019-04-03T02:50:48.583Z,14.64
2019-04-03T02:51:53.951Z,14.56
2019-04-03T02:52:59.115Z,14.57
2019-04-03T02:54:04.250Z,14.61
2019-04-03T02:55:08.879Z,14.64
2019-04-03T02:56:13.907Z,14.55
2019-04-03T02:57:18.519Z,14.63
2019-04-03T02:58:23.439Z,14.64
2019-04-03T02:59:27.751Z,14.65
2019-04-03T03:00:33.595Z,14.60
2019-04-03T03:01:39.755Z,14.47
2019-04-03T03:02:45.380Z,14.36
2019-04-03T03:03:50.273Z,14.36
2019-04-03T03:04:55.697Z,14.26
2019-04-03T03:06:01.305Z,14.10
2019-04-03T03:07:05.691Z,14.00
2019-04-03T03:08:10.221Z,14.06
2019-04-03T03:09:14.583Z,14.04
2019-04-03T03:10:20.367Z,14.00
2019-04-03T03:11:25.209Z,13.96
2019-04-03T03:12:30.327Z,13.99
2019-04-03T03:13:35.828Z,14.09
2019-04-03T03:14:40.972Z,14.18
2019-04-03T03:15:45.556Z,14.24
2019-04-03T03:16:50.852Z,14.37
2019-04-03T03:17:56.356Z,14.47
2019-04-03T03:19:01.887Z,14.52
2019-04-03T03:20:07.843Z,14.53
2019-04-03T03:21:13.834Z,14.60
2019-04-03T03:22:18.909Z,14.68
2019-04-03T03:23:24.285Z,14.74
2019-04-03T03:24:30.127Z,14.72
2019-04-03T03:25:34.464Z,14.75
2019-04-03T03:26:38.615Z,14.80
2019-04-03T03:27:43.294Z,14.73
2019-04-03T03:28:48.228Z,14.75
2019-04-03T03:29:52.347Z,14.80
2019-04-03T03:31:01.999Z,14.80
2019-04-03T03:32:12.602Z,14.85
2019-04-03T03:33:26.985Z,14.87
2019-04-03T03:34:15.512Z,14.87
2019-04-03T03:35:28.529Z,14.82
2019-04-03T03:36:26.877Z,14.80
2019-04-03T03:37:34.425Z,14.83
2019-04-03T03:38:39.756Z,14.84
2019-04-03T03:39:44.539Z,14.84
2019-04-03T03:40:50.219Z,14.88
2019-04-03T03:41:58.073Z,14.90
2019-04-03T03:43:05.077Z,14.95
2019-04-03T03:44:10.523Z,15.00
2019-04-03T03:45:15.811Z,15.05
2019-04-03T03:46:19.415Z,15.07
2019-04-03T03:47:23.657Z,15.08
2019-04-03T03:48:27.921Z,15.08
2019-04-03T03:49:32.090Z,15.09
2019-04-03T03:50:36.896Z,15.06
2019-04-03T03:51:41.441Z,15.04
2019-04-03T03:52:45.645Z,15.04
2019-04-03T03:53:49.911Z,15.05
2019-04-03T03:54:54.079Z,15.08
2019-04-03T03:56:01.864Z,15.10
2019-04-03T03:57:07.367Z,15.12
2019-04-03T03:58:13.363Z,15.12
2019-04-03T03:59:18.494Z,15.14
2019-04-03T04:00:24.362Z,15.09
2019-04-03T04:01:31.792Z,15.07
2019-04-03T04:02:36.789Z,15.08
2019-04-03T04:03:42.182Z,15.10
2019-04-03T04:04:48.632Z,15.07
2019-04-03T04:05:55.687Z,14.92
2019-04-03T04:07:02.011Z,15.00
2019-04-03T04:08:10.633Z,14.96
2019-04-03T04:09:15.638Z,14.97
2019-04-03T04:10:18.585Z,14.95
2019-04-03T04:11:22.740Z,14.97
2019-04-03T04:12:27.070Z,15.02
2019-04-03T04:13:31.229Z,15.01
2019-04-03T04:14:35.995Z,14.95
2019-04-03T04:15:40.226Z,14.88
2019-04-03T04:16:44.411Z,14.85
2019-04-03T04:17:51.127Z,14.83
2019-04-03T04:18:57.366Z,14.66
2019-04-03T04:20:05.170Z,14.63
2019-04-03T04:21:09.451Z,14.66
2019-04-03T04:22:15.448Z,14.71
2019-04-03T04:23:22.989Z,14.72
2019-04-03T04:24:27.629Z,14.76
2019-04-03T04:25:31.112Z,14.75
2019-04-03T04:26:35.661Z,14.73
2019-04-03T04:27:39.860Z,14.74
2019-04-03T04:28:44.130Z,14.70
2019-04-03T04:29:48.257Z,14.70
2019-04-03T04:30:52.467Z,14.65
2019-04-03T04:31:56.902Z,14.66
2019-04-03T04:33:01.082Z,14.65
2019-04-03T04:34:05.364Z,14.67
2019-04-03T04:35:10.910Z,14.56
2019-04-03T04:36:15.428Z,14.45
2019-04-03T04:37:19.668Z,14.49
2019-04-03T04:38:26.183Z,14.51
2019-04-03T04:39:29.807Z,14.50
2019-04-03T04:40:34.054Z,14.52
2019-04-03T04:41:38.226Z,14.55
2019-04-03T04:42:42.799Z,14.50
2019-04-03T04:43:47.007Z,14.51
2019-04-03T04:44:51.337Z,14.54
2019-04-03T04:45:55.454Z,14.51
2019-04-03T04:46:59.619Z,14.56
2019-04-03T04:48:04.123Z,14.55
2019-04-03T04:49:08.365Z,14.51
2019-04-03T04:50:12.803Z,14.41
2019-04-03T04:51:16.965Z,14.36
2019-04-03T04:52:21.244Z,14.32
2019-04-03T04:53:25.403Z,14.32
2019-04-03T04:54:30.629Z,14.29
2019-04-03T04:55:35.983Z,14.21
2019-04-03T04:56:41.138Z,14.05
2019-04-03T04:57:45.324Z,14.04
2019-04-03T04:58:52.235Z,14.10
2019-04-03T04:59:56.456Z,14.17
2019-04-03T05:01:00.997Z,14.20
2019-04-03T05:02:05.239Z,14.25
2019-04-03T05:03:09.408Z,14.20
2019-04-03T05:04:15.364Z,14.23
2019-04-03T05:05:19.660Z,14.23
2019-04-03T05:06:23.921Z,14.21
2019-04-03T05:07:30.318Z,14.23
2019-04-03T05:08:34.027Z,14.24
2019-04-03T05:09:38.806Z,14.17
2019-04-03T05:10:44.030Z,14.09
2019-04-03T05:11:48.238Z,14.10
2019-04-03T05:12:52.477Z,14.09
2019-04-03T05:13:56.712Z,14.09
2019-04-03T05:15:00.884Z,14.10
2019-04-03T05:16:05.188Z,14.04
2019-04-03T05:17:09.393Z,14.09
2019-04-03T05:18:13.559Z,14.14
2019-04-03T05:19:19.826Z,14.11
2019-04-03T05:20:24.116Z,14.08
2019-04-03T05:21:28.397Z,14.14
2019-04-03T05:22:33.784Z,14.08
2019-04-03T05:23:38.003Z,14.04
2019-04-03T05:24:42.185Z,14.01
2019-04-03T05:25:46.481Z,14.03
2019-04-03T05:26:50.898Z,14.03
2019-04-03T05:27:55.247Z,14.04
2019-04-03T05:28:59.419Z,14.03
2019-04-03T05:30:06.084Z,14.04
2019-04-03T05:31:10.239Z,14.01
2019-04-03T05:32:14.414Z,13.96
2019-04-03T05:33:18.633Z,13.94
2019-04-03T05:34:22.800Z,13.94
2019-04-03T05:35:26.963Z,13.91
2019-04-03T05:36:31.130Z,13.86
2019-04-03T05:37:35.306Z,13.84
2019-04-03T05:38:39.706Z,13.84
2019-04-03T05:39:43.835Z,13.83
2019-04-03T05:40:48.084Z,13.89
2019-04-03T05:41:52.491Z,13.92
2019-04-03T05:42:58.090Z,13.90
2019-04-03T05:44:03.286Z,13.96
2019-04-03T05:45:07.949Z,13.89
2019-04-03T05:46:12.484Z,13.92
2019-04-03T05:47:16.615Z,13.95
2019-04-03T05:48:20.781Z,13.97
2019-04-03T05:49:24.980Z,13.96
2019-04-03T05:50:30.763Z,13.97
2019-04-03T05:51:35.044Z,13.98
2019-04-03T05:52:39.221Z,14.03
2019-04-03T05:53:43.429Z,13.95
2019-04-03T05:54:47.759Z,13.90
2019-04-03T05:55:52.033Z,13.88
2019-04-03T05:56:56.428Z,13.91
2019-04-03T05:58:00.847Z,13.88
2019-04-03T05:59:04.989Z,13.88
2019-04-03T06:00:09.190Z,13.89
2019-04-03T06:01:13.465Z,13.92
2019-04-03T06:02:20.418Z,13.91
2019-04-03T06:03:37.686Z,13.86
2019-04-03T06:04:29.404Z,13.82
2019-04-03T06:05:34.875Z,13.81
2019-04-03T06:06:38.953Z,13.83
2019-04-03T06:07:43.141Z,13.90
2019-04-03T06:08:47.468Z,13.96
2019-04-03T06:09:51.904Z,13.98
2019-04-03T06:10:57.489Z,13.97
2019-04-03T06:12:01.654Z,13.92
2019-04-03T06:13:06.315Z,13.91
2019-04-03T06:14:10.628Z,13.89
2019-04-03T06:15:14.809Z,13.86
2019-04-03T06:16:19.081Z,13.82
2019-04-03T06:17:23.518Z,13.82
2019-04-03T06:18:29.764Z,13.84
2019-04-03T06:19:35.468Z,13.87
2019-04-03T06:20:39.784Z,13.83
2019-04-03T06:21:46.240Z,13.82
2019-04-03T06:22:51.070Z,13.78
2019-04-03T06:23:56.460Z,13.76
2019-04-03T06:25:00.624Z,13.79
2019-04-03T06:26:05.047Z,13.78
2019-04-03T06:27:10.364Z,13.72
2019-04-03T06:28:14.797Z,13.69
2019-04-03T06:29:19.658Z,13.64
2019-04-03T06:30:24.996Z,13.54
2019-04-03T06:31:29.960Z,13.57
2019-04-03T06:32:34.301Z,13.59
2019-04-03T06:33:38.460Z,13.67
2019-04-03T06:34:44.547Z,13.68
2019-04-03T06:35:48.786Z,13.69
2019-04-03T06:36:52.967Z,13.62
2019-04-03T06:37:57.195Z,13.64
2019-04-03T06:39:01.484Z,13.62
2019-04-03T06:40:09.008Z,13.56
2019-04-03T06:41:13.174Z,13.57
2019-04-03T06:42:17.447Z,13.48
2019-04-03T06:43:21.649Z,13.38
2019-04-03T06:44:26.205Z,13.42
2019-04-03T06:45:30.363Z,13.46
2019-04-03T06:46:34.614Z,13.46
2019-04-03T06:47:39.007Z,13.47
2019-04-03T06:48:43.180Z,13.45
2019-04-03T06:49:48.823Z,13.49
2019-04-03T06:50:52.989Z,13.52
2019-04-03T06:51:57.156Z,13.59
2019-04-03T06:53:01.348Z,13.52
2019-04-03T06:54:08.963Z,13.55
2019-04-03T06:55:13.127Z,13.59
2019-04-03T06:56:18.172Z,13.59
2019-04-03T06:57:22.364Z,13.48
2019-04-03T06:58:36.937Z,13.49
2019-04-03T06:59:32.663Z,13.55
2019-04-03T07:00:36.840Z,13.46
2019-04-03T07:01:41.055Z,13.44
2019-04-03T07:02:45.222Z,13.44
2019-04-03T07:03:49.434Z,13.48
2019-04-03T07:04:53.598Z,13.48
2019-04-03T07:05:57.832Z,13.51
2019-04-03T07:07:02.228Z,13.58
2019-04-03T07:08:06.448Z,13.57
2019-04-03T07:09:21.679Z,13.57
2019-04-03T07:10:25.085Z,13.47
2019-04-03T07:11:24.044Z,13.45
2019-04-03T07:12:29.447Z,13.30
2019-04-03T07:13:33.601Z,13.28
2019-04-03T07:14:37.781Z,13.27
2019-04-03T07:15:42.017Z,13.12
2019-04-03T07:16:46.263Z,12.97
2019-04-03T07:17:51.649Z,12.99
2019-04-03T07:18:55.836Z,12.94
2019-04-03T07:20:12.519Z,12.90
2019-04-03T07:21:06.185Z,12.90
2019-04-03T07:22:11.463Z,12.87
2019-04-03T07:23:15.684Z,12.84
2019-04-03T07:24:20.168Z,12.87
2019-04-03T07:25:24.799Z,12.84
2019-04-03T07:26:28.953Z,12.78
2019-04-03T07:27:34.874Z,12.77
2019-04-03T07:28:41.633Z,12.84
2019-04-03T07:29:45.054Z,12.98
2019-04-03T07:30:52.360Z,13.06
2019-04-03T07:31:55.723Z,13.06
2019-04-03T07:33:00.078Z,13.04
2019-04-03T07:34:04.260Z,13.06
2019-04-03T07:35:10.110Z,13.04
2019-04-03T07:36:14.413Z,13.01
2019-04-03T07:37:20.038Z,12.99
2019-04-03T07:38:24.650Z,12.91
2019-04-03T07:39:28.855Z,12.82
2019-04-03T07:40:33.278Z,12.83
2019-04-03T07:41:40.430Z,12.83
2019-04-03T07:42:43.779Z,12.91
2019-04-03T07:43:48.344Z,12.92
2019-04-03T07:44:52.538Z,13.02
2019-04-03T07:45:56.677Z,12.90
2019-04-03T07:47:03.347Z,12.82
2019-04-03T07:48:07.097Z,12.77
2019-04-03T07:49:13.798Z,12.67
2019-04-03T07:50:17.299Z,12.74
2019-04-03T07:51:21.538Z,12.57
2019-04-03T07:52:25.934Z,12.56
2019-04-03T07:53:30.138Z,12.51
2019-04-03T07:54:34.304Z,12.72
2019-04-03T07:55:38.476Z,12.75
2019-04-03T07:56:43.164Z,12.81
2019-04-03T07:57:47.640Z,12.76
2019-04-03T07:58:51.861Z,12.61
2019-04-03T07:59:56.112Z,12.47
2019-04-03T08:01:00.263Z,12.51
2019-04-03T08:02:05.332Z,12.57
2019-04-03T08:03:09.535Z,12.52
2019-04-03T08:04:15.838Z,12.56
2019-04-03T08:05:22.294Z,12.65
2019-04-03T08:06:26.746Z,12.77
2019-04-03T08:07:30.873Z,12.88
2019-04-03T08:08:35.875Z,12.93
2019-04-03T08:09:40.186Z,13.01
2019-04-03T08:10:44.828Z,12.99
2019-04-03T08:11:49.203Z,12.90
2019-04-03T08:12:53.374Z,12.92
2019-04-03T08:13:57.839Z,12.99
2019-04-03T08:15:02.036Z,13.03
2019-04-03T08:16:06.194Z,13.02
2019-04-03T08:17:10.367Z,12.99
2019-04-03T08:18:14.532Z,13.05
2019-04-03T08:19:18.813Z,13.06
2019-04-03T08:20:24.031Z,13.11
2019-04-03T08:21:30.481Z,13.14
2019-04-03T08:22:35.856Z,13.14
2019-04-03T08:23:42.915Z,13.14
2019-04-03T08:24:47.560Z,13.14
2019-04-03T08:25:57.330Z,13.13
2019-04-03T08:27:00.374Z,13.16
2019-04-03T08:28:05.233Z,13.20
2019-04-03T08:29:09.383Z,13.23
2019-04-03T08:30:13.923Z,13.20
2019-04-03T08:31:19.775Z,13.20
2019-04-03T08:32:24.209Z,13.22
2019-04-03T08:33:28.388Z,13.21
2019-04-03T08:34:38.255Z,13.21
2019-04-03T08:35:43.127Z,13.23
2019-04-03T08:36:47.529Z,13.23
2019-04-03T08:37:51.678Z,13.21
2019-04-03T08:38:55.871Z,13.25
2019-04-03T08:40:00.036Z,13.21
2019-04-03T08:41:04.812Z,13.24
2019-04-03T08:42:09.207Z,13.17
2019-04-03T08:43:13.455Z,13.09
2019-04-03T08:44:18.239Z,13.09
2019-04-03T08:45:23.771Z,13.16
2019-04-03T08:46:27.951Z,13.22
2019-04-03T08:47:32.288Z,13.29
2019-04-03T08:48:36.448Z,13.28
2019-04-03T08:49:40.957Z,13.27
2019-04-03T08:50:45.157Z,13.33
2019-04-03T08:51:49.327Z,13.35
2019-04-03T08:52:53.519Z,13.29
2019-04-03T08:53:58.299Z,13.29
2019-04-03T08:55:06.645Z,13.31
2019-04-03T08:56:10.920Z,13.38
2019-04-03T08:57:15.046Z,13.43
2019-04-03T08:58:20.969Z,13.32
2019-04-03T08:59:28.777Z,13.34
2019-04-03T09:00:34.950Z,13.35
2019-04-03T09:01:39.412Z,13.34
2019-04-03T09:02:44.115Z,13.36
2019-04-03T09:03:48.779Z,13.37
2019-04-03T09:04:53.031Z,13.37
2019-04-03T09:05:57.423Z,13.31
2019-04-03T09:07:06.511Z,13.35
2019-04-03T09:08:10.828Z,13.22
2019-04-03T09:09:15.044Z,13.25
2019-04-03T09:10:19.492Z,13.27
2019-04-03T09:11:23.677Z,13.24
2019-04-03T09:12:28.109Z,13.26
2019-04-03T09:13:32.411Z,13.25
2019-04-03T09:14:36.537Z,13.27
2019-04-03T09:15:40.773Z,13.24
2019-04-03T09:16:44.939Z,13.28
2019-04-03T09:17:49.160Z,13.30
2019-04-03T09:18:53.550Z,13.27
2019-04-03T09:19:57.764Z,13.29
2019-04-03T09:21:01.939Z,13.30
2019-04-03T09:22:06.346Z,13.29
2019-04-03T09:23:11.513Z,13.29
2019-04-03T09:24:15.878Z,13.28
2019-04-03T09:25:20.499Z,13.31
2019-04-03T09:26:24.804Z,13.28
2019-04-03T09:27:28.972Z,13.20
2019-04-03T09:28:33.286Z,13.19
2019-04-03T09:29:37.473Z,13.12
2019-04-03T09:30:41.704Z,13.12
2019-04-03T09:31:46.227Z,13.12
2019-04-03T09:32:53.750Z,13.09
2019-04-03T09:33:58.642Z,13.11
2019-04-03T09:35:02.971Z,13.08
2019-04-03T09:36:07.138Z,12.95
2019-04-03T09:37:11.349Z,13.00
2019-04-03T09:38:15.659Z,13.04
2019-04-03T09:39:21.734Z,13.07
2019-04-03T09:40:25.896Z,13.08
2019-04-03T09:41:30.177Z,13.08
2019-04-03T09:42:34.387Z,13.11
2019-04-03T09:43:39.922Z,13.01
2019-04-03T09:44:44.315Z,12.98
2019-04-03T09:45:48.550Z,12.99
2019-04-03T09:46:53.097Z,13.03
2019-04-03T09:47:57.257Z,13.00
2019-04-03T09:49:01.428Z,13.03
2019-04-03T09:50:07.574Z,13.04
2019-04-03T09:51:12.081Z,13.08
2019-04-03T09:52:16.572Z,13.09
2019-04-03T09:53:20.737Z,13.12
2019-04-03T09:54:28.789Z,13.13
2019-04-03T09:55:36.242Z,13.09
2019-04-03T09:56:54.907Z,13.03
2019-04-03T09:57:44.831Z,12.97
2019-04-03T09:58:49.499Z,13.01
2019-04-03T09:59:54.994Z,12.96
2019-04-03T10:00:59.100Z,12.95
2019-04-03T10:02:05.948Z,12.96
2019-04-03T10:03:10.112Z,13.03
2019-04-03T10:04:14.664Z,13.04
2019-04-03T10:05:18.816Z,13.06
2019-04-03T10:06:24.287Z,13.07
2019-04-03T10:07:30.973Z,13.08
2019-04-03T10:08:34.383Z,13.12
2019-04-03T10:09:39.192Z,13.13
2019-04-03T10:10:44.968Z,13.11
2019-04-03T10:11:51.538Z,13.10
2019-04-03T10:12:55.368Z,13.12
2019-04-03T10:13:59.561Z,13.13
2019-04-03T10:15:09.027Z,13.09
2019-04-03T10:16:16.135Z,13.08
2019-04-03T10:17:21.556Z,13.09
2019-04-03T10:18:28.653Z,13.10
2019-04-03T10:19:34.574Z,13.05
2019-04-03T10:20:38.775Z,13.04
2019-04-03T10:21:43.095Z,13.00
2019-04-03T10:22:47.403Z,13.04
2019-04-03T10:23:51.547Z,13.09
2019-04-03T10:24:59.403Z,13.13
2019-04-03T10:26:02.596Z,13.12
2019-04-03T10:27:07.152Z,13.12
2019-04-03T10:28:13.658Z,13.14
2019-04-03T10:29:19.664Z,13.13
2019-04-03T10:30:24.336Z,13.13
2019-04-03T10:31:28.508Z,13.13
2019-04-03T10:32:32.696Z,13.15
2019-04-03T10:33:36.862Z,13.12
2019-04-03T10:34:43.657Z,13.08
2019-04-03T10:35:47.939Z,13.10
2019-04-03T10:36:52.105Z,13.13
2019-04-03T10:37:56.384Z,13.11
2019-04-03T10:39:00.593Z,13.12
2019-04-03T10:40:08.032Z,13.09
2019-04-03T10:41:12.252Z,13.08
2019-04-03T10:42:16.505Z,13.11
2019-04-03T10:43:21.026Z,13.11
2019-04-03T10:44:25.304Z,13.09
2019-04-03T10:45:29.434Z,13.10
2019-04-03T10:46:33.779Z,13.05
2019-04-03T10:47:42.378Z,13.09
2019-04-03T10:48:43.822Z,13.05
2019-04-03T10:49:48.335Z,13.05
2019-04-03T10:50:52.448Z,13.11
2019-04-03T10:51:56.793Z,13.14
2019-04-03T10:53:01.153Z,13.16
2019-04-03T10:54:05.294Z,13.17
2019-04-03T10:55:09.545Z,13.19
2019-04-03T10:56:13.713Z,13.17
2019-04-03T10:57:18.001Z,13.16
2019-04-03T10:58:22.219Z,13.18
2019-04-03T10:59:26.960Z,13.18
2019-04-03T11:00:31.283Z,13.19
2019-04-03T11:01:35.711Z,13.13
2019-04-03T11:02:40.185Z,13.16
2019-04-03T11:03:44.327Z,13.14
2019-04-03T11:04:48.601Z,13.08
2019-04-03T11:05:52.983Z,13.06
2019-04-03T11:06:57.220Z,13.09
2019-04-03T11:08:01.579Z,13.10
2019-04-03T11:09:07.718Z,13.13
2019-04-03T11:10:11.989Z,13.14
2019-04-03T11:11:16.263Z,13.15
2019-04-03T11:12:20.506Z,13.17
2019-04-03T11:13:24.867Z,13.14
2019-04-03T11:14:29.276Z,13.19
2019-04-03T11:15:33.672Z,13.21
2019-04-03T11:16:39.153Z,13.25
2019-04-03T11:17:43.673Z,13.27
2019-04-03T11:18:58.030Z,13.21
2019-04-03T11:19:53.934Z,13.25
2019-04-03T11:20:58.383Z,13.24
2019-04-03T11:22:02.949Z,13.22
2019-04-03T11:23:08.601Z,13.20
2019-04-03T11:24:13.425Z,13.23
2019-04-03T11:25:17.562Z,13.28
2019-04-03T11:26:24.017Z,13.27
2019-04-03T11:27:40.875Z,13.28
2019-04-03T11:28:36.980Z,13.30
2019-04-03T11:29:41.900Z,13.30
2019-04-03T11:30:45.251Z,13.31
2019-04-03T11:31:49.620Z,13.32
2019-04-03T11:32:53.920Z,13.35
2019-04-03T11:33:58.414Z,13.30
2019-04-03T11:35:02.880Z,13.25
2019-04-03T11:36:07.039Z,13.23
2019-04-03T11:37:11.195Z,13.24
2019-04-03T11:38:25.707Z,13.24
2019-04-03T11:39:22.046Z,13.21
2019-04-03T11:40:26.175Z,13.19
2019-04-03T11:41:30.418Z,13.22
2019-04-03T11:42:34.654Z,13.25
2019-04-03T11:43:40.823Z,13.28
2019-04-03T11:44:45.179Z,13.21
2019-04-03T11:45:49.634Z,13.22
2019-04-03T11:46:53.783Z,13.23
2019-04-03T11:47:57.949Z,13.25
2019-04-03T11:49:03.755Z,13.24
2019-04-03T11:50:08.461Z,13.25
2019-04-03T11:51:13.062Z,13.23
2019-04-03T11:52:17.396Z,13.28
2019-04-03T11:53:21.663Z,13.32
2019-04-03T11:54:26.037Z,13.34
2019-04-03T11:55:31.036Z,13.36
2019-04-03T11:56:35.181Z,13.38
2019-04-03T11:57:39.352Z,13.38
2019-04-03T11:58:43.602Z,13.39
2019-04-03T11:59:47.901Z,13.40
2019-04-03T12:00:53.225Z,13.40
2019-04-03T12:01:57.639Z,13.42
2019-04-03T12:03:02.529Z,13.37
2019-04-03T12:04:07.009Z,13.40
2019-04-03T12:05:14.748Z,13.44
2019-04-03T12:06:19.678Z,13.48
2019-04-03T12:07:25.110Z,13.48
2019-04-03T12:08:29.482Z,13.50
2019-04-03T12:09:33.757Z,13.52
2019-04-03T12:10:38.125Z,13.57
2019-04-03T12:11:42.303Z,13.57
2019-04-03T12:12:49.258Z,13.61
2019-04-03T12:13:53.473Z,13.62
2019-04-03T12:14:57.640Z,13.59
2019-04-03T12:16:02.095Z,13.51
2019-04-03T12:17:06.257Z,13.42
2019-04-03T12:18:10.804Z,13.45
2019-04-03T12:19:17.717Z,13.49
2019-04-03T12:20:21.881Z,13.51
2019-04-03T12:21:28.006Z,13.53
2019-04-03T12:22:32.370Z,13.55
2019-04-03T12:23:39.174Z,13.55
2019-04-03T12:24:42.754Z,13.54
2019-04-03T12:25:47.171Z,13.54
2019-04-03T12:26:52.540Z,13.58
2019-04-03T12:27:57.287Z,13.51
2019-04-03T12:29:01.548Z,13.54
2019-04-03T12:30:08.040Z,13.58
2019-04-03T12:31:12.229Z,13.64
2019-04-03T12:32:16.607Z,13.69
2019-04-03T12:33:21.749Z,13.72
2019-04-03T12:34:26.155Z,13.57
2019-04-03T12:35:30.327Z,13.44
2019-04-03T12:36:34.785Z,13.45
2019-04-03T12:37:39.307Z,13.48
2019-04-03T12:38:43.563Z,13.50
2019-04-03T12:39:47.732Z,13.51
2019-04-03T12:40:51.898Z,13.53
2019-04-03T12:41:56.159Z,13.52
2019-04-03T12:43:00.662Z,13.56
2019-04-03T12:44:04.831Z,13.59
2019-04-03T12:45:09.527Z,13.57
2019-04-03T12:46:14.195Z,13.57
2019-04-03T12:47:18.531Z,13.60
2019-04-03T12:48:22.702Z,13.57
2019-04-03T12:49:26.942Z,13.47
2019-04-03T12:50:31.225Z,13.47
2019-04-03T12:51:35.405Z,13.52
2019-04-03T12:52:39.773Z,13.53
2019-04-03T12:53:43.916Z,13.52
2019-04-03T12:54:54.699Z,13.55
2019-04-03T12:55:58.924Z,13.59
2019-04-03T12:57:05.893Z,13.65
2019-04-03T12:58:10.081Z,13.70
2019-04-03T12:59:14.401Z,13.72
2019-04-03T13:00:20.409Z,13.72
2019-04-03T13:01:24.665Z,13.74
2019-04-03T13:02:28.939Z,13.70
2019-04-03T13:03:36.221Z,13.67
2019-04-03T13:04:39.016Z,13.67
2019-04-03T13:05:43.184Z,13.66
2019-04-03T13:06:47.721Z,13.68
2019-04-03T13:07:51.839Z,13.65
2019-04-03T13:08:56.037Z,13.62
2019-04-03T13:10:01.814Z,13.66
2019-04-03T13:11:07.493Z,13.67
2019-04-03T13:12:11.948Z,13.65
2019-04-03T13:13:16.267Z,13.66
2019-04-03T13:14:25.158Z,13.69
2019-04-03T13:15:26.309Z,13.71
2019-04-03T13:16:30.976Z,13.71
2019-04-03T13:17:35.213Z,13.73
2019-04-03T13:18:39.375Z,13.75
2019-04-03T13:19:43.543Z,13.80
2019-04-03T13:20:47.782Z,13.83
2019-04-03T13:21:52.080Z,13.79
2019-04-03T13:22:56.245Z,13.88
2019-04-03T13:24:00.867Z,13.91
2019-04-03T13:25:06.768Z,13.92
2019-04-03T13:26:11.292Z,13.96
2019-04-03T13:27:15.584Z,13.99
2019-04-03T13:28:19.792Z,14.02
2019-04-03T13:29:23.961Z,14.06
2019-04-03T13:30:28.133Z,14.07
2019-04-03T13:31:32.374Z,14.06
2019-04-03T13:32:36.581Z,14.05
2019-04-03T13:33:40.942Z,14.05
2019-04-03T13:34:45.166Z,14.09
2019-04-03T13:35:49.610Z,14.11
2019-04-03T13:36:54.138Z,14.12
2019-04-03T13:37:58.368Z,14.13
2019-04-03T13:39:04.305Z,14.12
2019-04-03T13:40:09.325Z,14.12
2019-04-03T13:41:13.521Z,14.11
2019-04-03T13:42:17.725Z,14.07
2019-04-03T13:43:22.628Z,14.07
2019-04-03T13:44:28.121Z,14.04
2019-04-03T13:45:32.711Z,14.02
2019-04-03T13:46:37.480Z,14.04
2019-04-03T13:47:43.547Z,14.03
2019-04-03T13:48:47.653Z,14.06
2019-04-03T13:49:52.070Z,14.08
2019-04-03T13:50:57.419Z,14.10
2019-04-03T13:52:07.163Z,14.09
2019-04-03T13:53:07.649Z,14.11
2019-04-03T13:54:11.793Z,14.05